4XCWZ LLHZ-LLHZ

Flight info

Callsign 4XCWZ
Flight time 0h 1m
Altitude 800
Route CVFR
Aircraft C172/L-VD/A

Departure

Time 2026-04-18 19:35
Airport Herzliya Airport (LLHZ)

Arrival

Time 2026-04-18 19:36
Airport Herzliya Airport (LLHZ)
Time Latitude Longitude Altitude Speed Heading
2026-04-18 19:26 32.17863 34.83846 121 ft 0 kts 288°
2026-04-18 19:31 32.17864 34.83843 121 ft 1 kts 283°
2026-04-18 19:31 32.17868 34.83833 121 ft 1 kts 308°
2026-04-18 19:31 32.17873 34.83828 120 ft 0 kts 339°
2026-04-18 19:31 32.17890 34.83827 121 ft 3 kts 338°
2026-04-18 19:32 32.17891 34.83826 121 ft 0 kts 338°
2026-04-18 19:32 32.17894 34.83825 121 ft 0 kts 353°
2026-04-18 19:32 32.17921 34.83826 121 ft 10 kts 321°
2026-04-18 19:32 32.17931 34.83798 121 ft 0 kts 280°
2026-04-18 19:33 32.17943 34.83752 120 ft 24 kts 287°
2026-04-18 19:34 32.18044 34.83407 158 ft 55 kts 273°
2026-04-18 19:34 32.18202 34.82987 304 ft 59 kts 284°
2026-04-18 19:34 32.18546 34.82745 508 ft 69 kts 340°
2026-04-18 19:34 32.19075 34.82913 591 ft 90 kts 12°
2026-04-18 19:35 32.19521 34.83453 749 ft 95 kts 61°
2026-04-18 19:35 32.19768 34.84215 866 ft 95 kts 86°
2026-04-18 19:35 32.19405 34.84632 929 ft 80 kts 165°
2026-04-18 19:35 32.18897 34.85077 859 ft 102 kts 147°
2026-04-18 19:36 32.18427 34.85443 711 ft 67 kts 193°
2026-04-18 19:36 32.18042 34.85330 559 ft 47 kts 214°
2026-04-18 19:36 32.17767 34.85149 441 ft 43 kts 227°
2026-04-18 19:36 32.17637 34.84866 381 ft 41 kts 258°
2026-04-18 19:37 32.17737 34.84514 290 ft 47 kts 276°
2026-04-18 19:37 32.17829 34.84141 214 ft 46 kts 272°
2026-04-18 19:37 32.17938 34.83784 123 ft 44 kts 275°
2026-04-18 19:37 32.18003 34.83547 113 ft 19 kts 288°
2026-04-18 19:38 32.18042 34.83420 109 ft 17 kts 288°
2026-04-18 19:38 32.18037 34.83331 107 ft 0 kts 174°
2026-04-18 19:39 32.18036 34.83331 107 ft 0 kts 174°
2026-04-18 19:39 32.18032 34.83335 107 ft 1 kts 104°
2026-04-18 19:39 32.18009 34.83412 109 ft 16 kts 111°
2026-04-18 19:39 32.17978 34.83512 113 ft 12 kts 123°
2026-04-18 19:40 32.17968 34.83524 113 ft 2 kts 176°
2026-04-18 19:40 32.17956 34.83520 113 ft 0 kts 199°